createdAt,value
2023-03-28T00:01:45.309Z,50.83
2023-03-28T00:04:13.868Z,50.75
2023-03-28T00:06:45.679Z,50.84
2023-03-28T00:09:13.723Z,50.80
2023-03-28T00:11:41.910Z,50.79
2023-03-28T00:14:09.871Z,50.84
2023-03-28T00:16:39.416Z,50.91
2023-03-28T00:19:09.405Z,50.96
2023-03-28T00:21:39.016Z,51.03
2023-03-28T00:24:10.993Z,51.13
2023-03-28T00:26:38.951Z,51.05
2023-03-28T00:29:09.338Z,51.26
2023-03-28T00:31:39.235Z,51.19
2023-03-28T00:34:07.897Z,51.24
2023-03-28T00:36:39.249Z,51.18
2023-03-28T00:39:07.867Z,51.21
2023-03-28T00:41:40.089Z,51.20
2023-03-28T00:44:26.803Z,51.23
2023-03-28T00:46:56.269Z,51.41
2023-03-28T00:49:26.330Z,51.21
2023-03-28T00:51:59.628Z,51.39
2023-03-28T00:54:30.259Z,51.39
2023-03-28T00:57:00.429Z,51.55
2023-03-28T00:59:30.859Z,51.51
2023-03-28T01:01:59.546Z,51.59
2023-03-28T01:04:33.620Z,51.70
2023-03-28T01:07:01.640Z,51.62
2023-03-28T01:09:31.529Z,51.66
2023-03-28T01:11:59.989Z,51.72
2023-03-28T01:14:29.292Z,51.80
2023-03-28T01:16:57.915Z,51.74
2023-03-28T01:19:52.058Z,51.68
2023-03-28T01:22:56.218Z,51.73
2023-03-28T01:25:44.338Z,51.56
2023-03-28T01:28:14.195Z,51.51
2023-03-28T01:30:48.321Z,51.48
2023-03-28T01:33:58.652Z,51.44
2023-03-28T01:36:42.386Z,51.57
2023-03-28T01:39:26.731Z,51.63
2023-03-28T01:42:07.029Z,51.72
2023-03-28T01:44:45.909Z,51.61
2023-03-28T01:47:25.488Z,51.64
2023-03-28T01:49:53.637Z,51.70
2023-03-28T01:52:21.927Z,51.82
2023-03-28T01:55:08.747Z,51.74
2023-03-28T01:57:37.025Z,51.72
2023-03-28T02:00:15.950Z,51.65
2023-03-28T02:03:06.392Z,51.75
2023-03-28T02:05:39.508Z,51.63
2023-03-28T02:08:13.703Z,51.94
2023-03-28T02:10:49.795Z,51.87
2023-03-28T02:13:33.312Z,51.95
2023-03-28T02:16:12.469Z,51.77
2023-03-28T02:19:11.324Z,52.02
2023-03-28T02:21:52.387Z,51.85
2023-03-28T02:24:43.586Z,51.85
2023-03-28T02:27:35.003Z,51.95
2023-03-28T02:30:29.272Z,51.84
2023-03-28T02:33:01.680Z,52.00
2023-03-28T02:35:40.335Z,51.97
2023-03-28T02:38:18.993Z,51.98
2023-03-28T02:41:07.532Z,52.19
2023-03-28T02:43:54.951Z,52.04
2023-03-28T02:46:22.887Z,52.23
2023-03-28T02:49:10.666Z,52.31
2023-03-28T02:51:41.995Z,52.20
2023-03-28T02:54:25.612Z,52.26
2023-03-28T02:57:20.557Z,52.34
2023-03-28T02:59:55.542Z,52.46
2023-03-28T03:02:24.165Z,52.39
2023-03-28T03:04:52.197Z,52.43
2023-03-28T03:07:20.499Z,52.51
2023-03-28T03:09:53.696Z,52.56
2023-03-28T03:12:23.313Z,52.42
2023-03-28T03:14:55.805Z,52.62
2023-03-28T03:17:59.408Z,52.63
2023-03-28T03:20:34.362Z,52.54
2023-03-28T03:23:03.908Z,52.71
2023-03-28T03:25:34.630Z,52.72
2023-03-28T03:28:32.429Z,52.56
2023-03-28T03:31:02.544Z,52.36
2023-03-28T03:33:49.635Z,52.44
2023-03-28T03:36:20.573Z,52.42
2023-03-28T03:38:48.843Z,52.23
2023-03-28T03:41:21.872Z,52.19
2023-03-28T03:43:50.222Z,52.12
2023-03-28T03:46:18.957Z,52.12
2023-03-28T03:48:49.409Z,52.03
2023-03-28T03:51:18.952Z,51.94
2023-03-28T03:53:50.833Z,51.97
2023-03-28T03:56:22.783Z,52.02
2023-03-28T03:58:55.154Z,52.13
2023-03-28T04:01:30.431Z,52.09
2023-03-28T04:04:07.933Z,51.83
2023-03-28T04:06:51.933Z,51.68
2023-03-28T04:09:22.763Z,51.49
2023-03-28T04:11:56.984Z,51.56
2023-03-28T04:14:25.355Z,51.38
2023-03-28T04:17:04.603Z,51.39
2023-03-28T04:19:32.765Z,51.27
2023-03-28T04:22:01.063Z,51.18
2023-03-28T04:24:28.927Z,51.24
2023-03-28T04:27:17.879Z,51.34
2023-03-28T04:29:46.912Z,51.47
2023-03-28T04:32:36.201Z,51.51
2023-03-28T04:35:12.049Z,51.45
2023-03-28T04:37:40.786Z,51.44
2023-03-28T04:40:12.614Z,51.22
2023-03-28T04:43:01.189Z,51.51
2023-03-28T04:45:37.916Z,51.38
2023-03-28T04:48:17.711Z,51.44
2023-03-28T04:50:45.988Z,51.30
2023-03-28T04:53:14.779Z,51.31
2023-03-28T04:56:00.341Z,51.41
2023-03-28T04:58:30.456Z,51.26
2023-03-28T05:01:03.309Z,51.25
2023-03-28T05:03:47.972Z,51.28
2023-03-28T05:06:16.173Z,51.58
2023-03-28T05:08:44.674Z,51.37
2023-03-28T05:11:13.056Z,51.40
2023-03-28T05:13:41.341Z,51.21
2023-03-28T05:16:17.649Z,51.50
2023-03-28T05:18:46.397Z,51.10
2023-03-28T05:21:14.976Z,51.45
2023-03-28T05:23:43.566Z,51.29
2023-03-28T05:26:22.488Z,51.48
2023-03-28T05:28:51.286Z,51.33
2023-03-28T05:31:19.798Z,51.57
2023-03-28T05:33:51.102Z,51.13
2023-03-28T05:36:27.446Z,51.76
2023-03-28T05:38:55.572Z,51.36
2023-03-28T05:41:24.053Z,51.26
2023-03-28T05:43:52.029Z,51.20
2023-03-28T05:46:46.190Z,51.02
2023-03-28T05:49:14.890Z,51.01
2023-03-28T05:51:42.760Z,50.79
2023-03-28T05:54:10.944Z,51.14
2023-03-28T05:56:39.966Z,50.70
2023-03-28T05:59:08.423Z,50.64
2023-03-28T06:01:40.796Z,50.89
2023-03-28T06:04:11.062Z,50.71
2023-03-28T06:06:39.505Z,50.96
2023-03-28T06:09:08.291Z,50.93
2023-03-28T06:11:47.120Z,50.69
2023-03-28T06:14:15.583Z,50.60
2023-03-28T06:16:44.432Z,50.78
2023-03-28T06:19:17.834Z,50.60
2023-03-28T06:21:52.116Z,50.32
2023-03-28T06:24:20.900Z,50.27
2023-03-28T06:26:48.725Z,50.47
2023-03-28T06:29:19.872Z,50.40
2023-03-28T06:31:50.237Z,50.23
2023-03-28T06:34:20.068Z,50.21
2023-03-28T06:36:53.475Z,50.01
2023-03-28T06:39:21.735Z,50.01
2023-03-28T06:41:51.048Z,49.75
2023-03-28T06:44:20.081Z,49.78
2023-03-28T06:47:07.570Z,49.34
2023-03-28T06:49:36.875Z,49.69
2023-03-28T06:52:05.272Z,49.83
2023-03-28T06:54:34.465Z,49.31
2023-03-28T06:57:02.552Z,49.26
2023-03-28T06:59:30.597Z,49.15
2023-03-28T07:02:02.757Z,49.12
2023-03-28T07:04:35.462Z,48.89
2023-03-28T07:07:04.668Z,48.82
2023-03-28T07:09:33.356Z,48.68
2023-03-28T07:12:07.269Z,48.54
2023-03-28T07:14:35.860Z,48.50
2023-03-28T07:17:03.930Z,48.73
2023-03-28T07:19:33.562Z,48.93
2023-03-28T07:22:01.822Z,48.66
2023-03-28T07:24:30.437Z,48.55
2023-03-28T07:27:15.366Z,48.57
2023-03-28T07:29:46.317Z,48.06
2023-03-28T07:32:16.016Z,48.32
2023-03-28T07:34:46.376Z,48.56
2023-03-28T07:37:19.853Z,48.31
2023-03-28T07:40:09.116Z,48.50
2023-03-28T07:42:37.701Z,47.97
2023-03-28T07:45:06.077Z,47.42
2023-03-28T07:47:34.093Z,47.48
2023-03-28T07:50:02.341Z,47.83
2023-03-28T07:52:30.269Z,47.80
2023-03-28T07:54:58.392Z,47.86
2023-03-28T07:57:28.054Z,47.92
2023-03-28T08:00:00.289Z,47.80
2023-03-28T08:02:28.845Z,47.79
2023-03-28T08:04:57.411Z,47.79
2023-03-28T08:07:27.253Z,47.57
2023-03-28T08:09:57.776Z,47.66
2023-03-28T08:12:29.461Z,47.64
2023-03-28T08:14:57.949Z,47.07
2023-03-28T08:17:26.835Z,47.32
2023-03-28T08:19:56.337Z,47.09
2023-03-28T08:22:31.276Z,47.12
2023-03-28T08:25:31.280Z,47.11
2023-03-28T08:28:00.501Z,47.00
2023-03-28T08:30:28.651Z,46.87
2023-03-28T08:32:59.518Z,46.89
2023-03-28T08:35:27.670Z,46.90
2023-03-28T08:37:58.000Z,46.74
2023-03-28T08:40:28.539Z,46.35
2023-03-28T08:43:04.907Z,46.61
2023-03-28T08:45:42.398Z,46.43
2023-03-28T08:48:16.336Z,46.27
2023-03-28T08:50:54.117Z,45.89
2023-03-28T08:53:44.045Z,45.71
2023-03-28T08:56:15.842Z,45.72
2023-03-28T08:59:04.884Z,45.75
2023-03-28T09:01:33.280Z,45.31
2023-03-28T09:04:03.229Z,45.47
2023-03-28T09:06:44.161Z,45.79
2023-03-28T09:09:45.187Z,45.77
2023-03-28T09:12:51.148Z,45.84
2023-03-28T09:15:46.126Z,45.81
2023-03-28T09:18:14.866Z,45.57
2023-03-28T09:20:43.433Z,45.48
2023-03-28T09:23:24.997Z,45.05
2023-03-28T09:26:17.221Z,44.68
2023-03-28T09:28:51.264Z,44.74
2023-03-28T09:31:21.732Z,44.65
2023-03-28T09:33:50.439Z,44.81
2023-03-28T09:36:41.099Z,44.73
2023-03-28T09:39:18.735Z,44.88
2023-03-28T09:42:05.803Z,44.72
2023-03-28T09:45:12.395Z,44.59
2023-03-28T09:48:02.212Z,44.68
2023-03-28T09:50:32.392Z,44.14
2023-03-28T09:53:01.393Z,44.25
2023-03-28T09:55:30.993Z,43.91
2023-03-28T09:58:02.344Z,44.20
2023-03-28T10:00:36.662Z,44.36
2023-03-28T10:03:35.133Z,44.25
2023-03-28T10:06:24.197Z,44.10
2023-03-28T10:08:52.721Z,44.09
2023-03-28T10:11:28.633Z,43.70
2023-03-28T10:13:57.809Z,43.91
2023-03-28T10:16:27.515Z,43.78
2023-03-28T10:19:02.832Z,43.84
2023-03-28T10:21:40.890Z,43.85
2023-03-28T10:24:15.721Z,43.75
2023-03-28T10:26:48.712Z,43.97
2023-03-28T10:29:17.708Z,43.94
2023-03-28T10:31:50.010Z,44.01
2023-03-28T10:34:57.866Z,43.54
2023-03-28T10:37:34.125Z,43.78
2023-03-28T10:40:29.871Z,43.89
2023-03-28T10:43:52.458Z,44.05
2023-03-28T10:46:35.906Z,43.37
2023-03-28T10:49:19.618Z,43.10
2023-03-28T10:51:55.877Z,43.43
2023-03-28T10:54:30.393Z,43.44
2023-03-28T10:57:05.061Z,43.30
2023-03-28T10:59:33.582Z,43.35
2023-03-28T11:02:19.115Z,43.31
2023-03-28T11:04:56.985Z,43.19
2023-03-28T11:07:33.228Z,42.98
2023-03-28T11:10:33.885Z,43.12
2023-03-28T11:13:06.770Z,43.01
2023-03-28T11:15:59.289Z,42.50
2023-03-28T11:18:44.961Z,42.53
2023-03-28T11:21:24.702Z,42.31
2023-03-28T11:23:53.895Z,42.41
2023-03-28T11:26:43.452Z,42.45
2023-03-28T11:29:49.828Z,42.25
2023-03-28T11:32:24.659Z,42.17
2023-03-28T11:34:53.652Z,42.33
2023-03-28T11:37:35.243Z,41.66
2023-03-28T11:40:09.592Z,42.02
2023-03-28T11:42:54.306Z,42.03
2023-03-28T11:45:30.633Z,41.67
2023-03-28T11:48:10.354Z,41.59
2023-03-28T11:50:43.202Z,41.77
2023-03-28T11:53:43.821Z,41.82
2023-03-28T11:56:24.171Z,42.02
2023-03-28T11:59:29.089Z,41.81
2023-03-28T12:02:03.940Z,41.87
2023-03-28T12:04:48.173Z,41.12
2023-03-28T12:07:25.460Z,41.53
2023-03-28T12:09:54.386Z,41.71
2023-03-28T12:12:42.779Z,41.89
2023-03-28T12:15:21.808Z,41.94
2023-03-28T12:18:00.855Z,41.93
2023-03-28T12:20:37.838Z,41.91
2023-03-28T12:23:18.801Z,41.93
2023-03-28T12:26:24.369Z,42.06
2023-03-28T12:28:54.863Z,42.05
2023-03-28T12:31:31.777Z,41.93
2023-03-28T12:34:35.210Z,42.16
2023-03-28T12:37:25.444Z,42.17
2023-03-28T12:40:27.390Z,42.20
2023-03-28T12:42:57.675Z,42.25
2023-03-28T12:45:29.151Z,42.19
2023-03-28T12:48:03.080Z,42.35
2023-03-28T12:50:35.524Z,42.51
2023-03-28T12:53:04.813Z,42.55
2023-03-28T12:55:44.367Z,42.63
2023-03-28T12:58:20.006Z,42.50
2023-03-28T13:00:57.185Z,42.53
2023-03-28T13:03:37.041Z,42.31
2023-03-28T13:06:23.915Z,42.32
2023-03-28T13:09:05.323Z,42.32
2023-03-28T13:11:37.068Z,42.40
2023-03-28T13:14:06.113Z,42.54
2023-03-28T13:17:07.096Z,42.47
2023-03-28T13:19:47.036Z,42.48
2023-03-28T13:22:24.538Z,42.64
2023-03-28T13:24:52.889Z,42.85
2023-03-28T13:27:32.826Z,42.95
2023-03-28T13:30:05.296Z,42.93
2023-03-28T13:32:34.764Z,43.11
2023-03-28T13:35:05.727Z,43.06
2023-03-28T13:37:42.533Z,43.08
2023-03-28T13:40:29.370Z,43.09
2023-03-28T13:42:58.300Z,43.06
2023-03-28T13:45:26.660Z,43.03
2023-03-28T13:48:06.115Z,43.26
2023-03-28T13:50:41.327Z,43.15
2023-03-28T13:53:09.307Z,43.12
2023-03-28T13:55:38.408Z,43.29
2023-03-28T13:58:06.786Z,43.08
2023-03-28T14:00:34.979Z,43.20
2023-03-28T14:03:05.762Z,43.05
2023-03-28T14:05:35.612Z,43.12
2023-03-28T14:08:16.174Z,42.97
2023-03-28T14:10:45.364Z,43.09
2023-03-28T14:13:16.626Z,43.31
2023-03-28T14:15:45.687Z,43.40
2023-03-28T14:18:34.691Z,43.53
2023-03-28T14:21:03.535Z,43.57
2023-03-28T14:23:37.467Z,43.71
2023-03-28T14:26:08.127Z,43.96
2023-03-28T14:28:39.478Z,43.91
2023-03-28T14:31:12.361Z,43.90
2023-03-28T14:33:42.138Z,44.00
2023-03-28T14:36:17.425Z,43.96
2023-03-28T14:38:45.599Z,44.28
2023-03-28T14:41:15.921Z,44.44
2023-03-28T14:43:47.280Z,44.53
2023-03-28T14:46:17.641Z,44.41
2023-03-28T14:48:45.982Z,44.36
2023-03-28T14:51:14.261Z,44.46
2023-03-28T14:53:44.686Z,44.51
2023-03-28T14:56:23.619Z,44.63
2023-03-28T14:58:59.581Z,44.52
2023-03-28T15:01:28.006Z,44.73
2023-03-28T15:04:01.629Z,44.71
2023-03-28T15:06:30.129Z,44.78
2023-03-28T15:08:59.870Z,44.89
2023-03-28T15:11:30.918Z,44.74
2023-03-28T15:13:58.983Z,44.73
2023-03-28T15:16:28.065Z,44.62
2023-03-28T15:19:07.180Z,44.58
2023-03-28T15:21:40.917Z,44.37
2023-03-28T15:24:15.240Z,44.48
2023-03-28T15:26:44.445Z,44.21
2023-03-28T15:29:16.702Z,44.34
2023-03-28T15:31:45.019Z,44.29
2023-03-28T15:34:21.656Z,44.33
2023-03-28T15:36:52.844Z,44.32
2023-03-28T15:39:25.651Z,44.08
2023-03-28T15:41:55.313Z,44.03
2023-03-28T15:44:26.761Z,44.39
2023-03-28T15:47:00.147Z,44.32
2023-03-28T15:49:29.158Z,44.30
2023-03-28T15:52:01.844Z,44.19
2023-03-28T15:54:31.928Z,44.02
2023-03-28T15:57:01.415Z,44.20
2023-03-28T15:59:36.369Z,44.38
2023-03-28T16:02:31.366Z,43.94
2023-03-28T16:05:27.963Z,44.22
2023-03-28T16:07:56.003Z,44.32
2023-03-28T16:10:25.200Z,44.40
2023-03-28T16:13:14.772Z,44.44
2023-03-28T16:15:53.154Z,44.44
2023-03-28T16:18:30.465Z,44.61
2023-03-28T16:20:59.258Z,44.64
2023-03-28T16:23:27.680Z,44.84
2023-03-28T16:25:56.119Z,44.74
2023-03-28T16:28:23.980Z,44.83
2023-03-28T16:30:53.314Z,44.86
2023-03-28T16:33:21.689Z,44.88
2023-03-28T16:35:49.687Z,45.02
2023-03-28T16:38:18.859Z,45.03
2023-03-28T16:40:48.790Z,45.09
2023-03-28T16:43:17.379Z,45.04
2023-03-28T16:45:47.214Z,45.38
2023-03-28T16:48:15.972Z,45.27
2023-03-28T16:50:54.478Z,45.57
2023-03-28T16:53:22.878Z,45.63
2023-03-28T16:55:53.104Z,45.44
2023-03-28T16:58:21.164Z,45.80
2023-03-28T17:00:52.351Z,45.72
2023-03-28T17:03:21.585Z,46.13
2023-03-28T17:05:50.019Z,46.17
2023-03-28T17:08:18.084Z,46.38
2023-03-28T17:10:47.692Z,46.46
2023-03-28T17:13:15.966Z,46.49
2023-03-28T17:15:44.266Z,46.60
2023-03-28T17:18:12.471Z,46.63
2023-03-28T17:20:41.220Z,46.66
2023-03-28T17:23:09.221Z,46.77
2023-03-28T17:25:48.128Z,46.96
2023-03-28T17:28:20.085Z,46.89
2023-03-28T17:30:48.170Z,46.99
2023-03-28T17:33:17.464Z,46.94
2023-03-28T17:35:46.135Z,46.99
2023-03-28T17:38:14.531Z,47.14
2023-03-28T17:40:49.269Z,47.08
2023-03-28T17:43:17.607Z,47.12
2023-03-28T17:45:45.523Z,46.94
2023-03-28T17:48:13.400Z,46.80
2023-03-28T17:50:41.570Z,46.91
2023-03-28T17:53:09.956Z,46.84
2023-03-28T17:55:37.943Z,46.79
2023-03-28T17:58:06.853Z,46.77
2023-03-28T18:00:38.203Z,46.75
2023-03-28T18:03:06.920Z,46.74
2023-03-28T18:06:00.771Z,46.61
2023-03-28T18:08:29.881Z,46.60
2023-03-28T18:11:03.129Z,46.53
2023-03-28T18:13:31.100Z,46.47
2023-03-28T18:15:59.552Z,46.36
2023-03-28T18:18:29.206Z,46.34
2023-03-28T18:20:58.300Z,46.44
2023-03-28T18:23:26.433Z,46.49
2023-03-28T18:25:54.656Z,46.46
2023-03-28T18:28:24.078Z,46.44
2023-03-28T18:30:52.549Z,46.43
2023-03-28T18:33:24.817Z,46.46
2023-03-28T18:35:52.989Z,46.45
2023-03-28T18:38:22.923Z,46.43
2023-03-28T18:40:56.790Z,46.46
2023-03-28T18:43:24.800Z,46.40
2023-03-28T18:45:54.937Z,46.39
2023-03-28T18:48:23.919Z,46.31
2023-03-28T18:50:52.310Z,46.42
2023-03-28T18:53:21.412Z,46.22
2023-03-28T18:55:49.799Z,46.30
2023-03-28T18:58:18.885Z,46.33
2023-03-28T19:00:47.797Z,46.36
2023-03-28T19:03:17.806Z,46.47
2023-03-28T19:05:46.086Z,46.38
2023-03-28T19:08:14.062Z,46.32
2023-03-28T19:10:46.436Z,46.16
2023-03-28T19:13:14.608Z,46.22
2023-03-28T19:15:43.808Z,46.40
2023-03-28T19:18:12.237Z,46.06
2023-03-28T19:20:40.272Z,46.20
2023-03-28T19:23:08.270Z,46.41
2023-03-28T19:25:36.778Z,46.52
2023-03-28T19:28:05.116Z,46.33
2023-03-28T19:30:33.115Z,46.27
2023-03-28T19:33:01.328Z,46.32
2023-03-28T19:35:29.471Z,46.27
2023-03-28T19:37:58.540Z,46.27
2023-03-28T19:40:26.645Z,46.37
2023-03-28T19:42:58.614Z,46.25
2023-03-28T19:45:26.663Z,46.16
2023-03-28T19:47:56.167Z,46.36
2023-03-28T19:50:24.367Z,46.32
2023-03-28T19:52:52.429Z,46.20
2023-03-28T19:55:20.520Z,46.17
2023-03-28T19:57:48.408Z,46.17
2023-03-28T20:00:17.576Z,46.10
2023-03-28T20:02:45.698Z,46.26
2023-03-28T20:05:13.936Z,46.18
2023-03-28T20:07:42.115Z,46.09
2023-03-28T20:10:10.703Z,46.03
2023-03-28T20:12:40.125Z,46.11
2023-03-28T20:15:09.340Z,45.91
2023-03-28T20:17:37.340Z,45.93
2023-03-28T20:20:05.663Z,45.75
2023-03-28T20:22:34.427Z,45.71
2023-03-28T20:25:02.540Z,45.65
2023-03-28T20:27:32.196Z,45.74
2023-03-28T20:30:00.833Z,45.84
2023-03-28T20:32:28.930Z,45.71
2023-03-28T20:34:56.789Z,45.61
2023-03-28T20:37:25.094Z,45.47
2023-03-28T20:39:53.439Z,45.48
2023-03-28T20:42:21.873Z,45.37
2023-03-28T20:44:50.129Z,45.42
2023-03-28T20:47:25.521Z,45.32
2023-03-28T20:49:56.916Z,45.10
2023-03-28T20:52:25.719Z,45.30
2023-03-28T20:54:54.706Z,45.07
2023-03-28T20:57:25.805Z,45.07
2023-03-28T20:59:55.329Z,44.85
2023-03-28T21:02:25.497Z,44.98
2023-03-28T21:04:54.157Z,44.88
2023-03-28T21:07:22.453Z,44.82
2023-03-28T21:09:50.938Z,44.80
2023-03-28T21:12:18.807Z,44.88
2023-03-28T21:14:47.189Z,44.72
2023-03-28T21:17:22.177Z,44.70
2023-03-28T21:19:50.737Z,44.61
2023-03-28T21:22:19.296Z,44.68
2023-03-28T21:24:48.604Z,44.58
2023-03-28T21:27:19.542Z,44.93
2023-03-28T21:29:47.817Z,44.92
2023-03-28T21:32:16.548Z,44.74
2023-03-28T21:34:44.894Z,44.71
2023-03-28T21:37:12.877Z,44.70
2023-03-28T21:39:41.045Z,44.48
2023-03-28T21:42:09.319Z,44.70
2023-03-28T21:44:37.307Z,44.48
2023-03-28T21:47:05.380Z,44.35
2023-03-28T21:49:33.572Z,44.44
2023-03-28T21:52:01.426Z,44.41
2023-03-28T21:54:29.410Z,44.48
2023-03-28T21:56:59.265Z,44.47
2023-03-28T21:59:27.608Z,44.47
2023-03-28T22:01:55.913Z,44.62
2023-03-28T22:04:24.069Z,44.46
2023-03-28T22:06:53.349Z,44.49
2023-03-28T22:09:22.163Z,44.45
2023-03-28T22:11:50.145Z,44.43
2023-03-28T22:14:18.822Z,44.55
2023-03-28T22:16:47.616Z,44.54
2023-03-28T22:19:18.947Z,44.41
2023-03-28T22:21:48.721Z,44.31
2023-03-28T22:24:17.609Z,44.16
2023-03-28T22:26:46.504Z,44.45
2023-03-28T22:29:14.450Z,44.37
2023-03-28T22:31:42.292Z,44.55
2023-03-28T22:34:10.402Z,44.58
2023-03-28T22:36:38.485Z,44.51
2023-03-28T22:39:07.994Z,44.69
2023-03-28T22:41:35.964Z,44.67
2023-03-28T22:44:05.164Z,44.64
2023-03-28T22:46:34.232Z,44.56
2023-03-28T22:49:04.692Z,44.63
2023-03-28T22:51:32.498Z,44.83
2023-03-28T22:54:02.482Z,44.62
2023-03-28T22:56:30.774Z,44.65
2023-03-28T22:59:01.508Z,44.78
2023-03-28T23:01:29.682Z,44.56
2023-03-28T23:03:57.753Z,44.49
2023-03-28T23:06:25.832Z,44.21
2023-03-28T23:08:53.805Z,44.33
2023-03-28T23:11:21.870Z,44.40
2023-03-28T23:13:50.459Z,44.57
2023-03-28T23:16:18.631Z,44.67
2023-03-28T23:18:50.155Z,44.60
2023-03-28T23:21:19.008Z,44.55
2023-03-28T23:23:47.595Z,44.41
2023-03-28T23:26:15.859Z,44.64
2023-03-28T23:28:44.351Z,44.34
2023-03-28T23:31:12.373Z,44.29
2023-03-28T23:33:40.906Z,44.38
2023-03-28T23:36:09.125Z,44.31
2023-03-28T23:38:37.262Z,43.90
2023-03-28T23:41:05.340Z,44.10
2023-03-28T23:43:33.493Z,43.87
2023-03-28T23:46:04.944Z,44.29
2023-03-28T23:48:32.944Z,44.18
2023-03-28T23:51:04.919Z,44.02
2023-03-28T23:53:32.885Z,44.14
2023-03-28T23:56:01.371Z,44.13
2023-03-28T23:58:29.516Z,43.88
